createdAt,value
2022-10-19T00:02:22.910Z,11.70
2022-10-19T00:04:49.523Z,10.02
2022-10-19T00:07:16.077Z,12.98
2022-10-19T00:09:49.346Z,12.63
2022-10-19T00:12:15.922Z,12.68
2022-10-19T00:14:42.508Z,10.20
2022-10-19T00:17:09.048Z,14.05
2022-10-19T00:19:35.568Z,12.15
2022-10-19T00:22:02.601Z,15.85
2022-10-19T00:24:29.435Z,21.20
2022-10-19T00:26:56.088Z,12.60
2022-10-19T00:29:22.717Z,11.38
2022-10-19T00:31:50.533Z,15.35
2022-10-19T00:34:17.473Z,13.32
2022-10-19T00:36:43.969Z,13.77
2022-10-19T00:39:15.592Z,13.10
2022-10-19T00:41:43.602Z,12.20
2022-10-19T00:44:10.040Z,13.65
2022-10-19T00:46:41.741Z,14.88
2022-10-19T00:49:15.757Z,13.20
2022-10-19T00:51:45.655Z,14.77
2022-10-19T00:54:12.736Z,11.98
2022-10-19T00:56:41.739Z,11.43
2022-10-19T00:59:09.050Z,15.20
2022-10-19T01:01:35.785Z,10.85
2022-10-19T01:04:03.121Z,12.05
2022-10-19T01:06:30.128Z,12.30
2022-10-19T01:08:56.829Z,11.88
2022-10-19T01:11:32.771Z,12.07
2022-10-19T01:14:17.772Z,16.45
2022-10-19T01:16:53.215Z,15.23
2022-10-19T01:20:08.027Z,16.23
2022-10-19T01:23:06.316Z,17.40
2022-10-19T01:25:55.919Z,16.23
2022-10-19T01:28:47.713Z,16.58
2022-10-19T01:31:20.512Z,10.80
2022-10-19T01:33:53.215Z,9.80
2022-10-19T01:36:38.153Z,11.27
2022-10-19T01:39:37.463Z,10.80
2022-10-19T01:42:44.649Z,10.57
2022-10-19T01:45:21.209Z,16.08
2022-10-19T01:47:59.526Z,12.32
2022-10-19T01:50:38.485Z,12.57
2022-10-19T01:53:07.686Z,13.80
2022-10-19T01:55:34.967Z,14.57
2022-10-19T01:58:09.845Z,10.95
2022-10-19T02:00:39.110Z,11.55
2022-10-19T02:03:05.911Z,15.07
2022-10-19T02:05:33.847Z,10.32
2022-10-19T02:08:05.010Z,13.48
2022-10-19T02:10:32.615Z,11.68
2022-10-19T02:12:59.496Z,11.43
2022-10-19T02:15:26.839Z,12.25
2022-10-19T02:17:57.280Z,13.23
2022-10-19T02:20:23.939Z,11.52
2022-10-19T02:22:50.894Z,11.90
2022-10-19T02:25:17.585Z,10.27
2022-10-19T02:27:44.611Z,13.63
2022-10-19T02:30:13.196Z,13.63
2022-10-19T02:32:39.965Z,11.23
2022-10-19T02:35:06.765Z,14.95
2022-10-19T02:37:33.533Z,10.70
2022-10-19T02:40:00.633Z,12.70
2022-10-19T02:42:36.096Z,10.15
2022-10-19T02:45:17.651Z,13.70
2022-10-19T02:47:48.507Z,11.73
2022-10-19T02:50:15.467Z,10.52
2022-10-19T02:52:42.100Z,10.50
2022-10-19T02:55:09.327Z,9.90
2022-10-19T02:57:36.521Z,11.88
2022-10-19T03:00:05.927Z,12.15
2022-10-19T03:02:32.431Z,12.98
2022-10-19T03:04:58.962Z,11.52
2022-10-19T03:07:25.625Z,10.10
2022-10-19T03:09:52.351Z,15.38
2022-10-19T03:12:18.998Z,11.13
2022-10-19T03:14:45.604Z,12.77
2022-10-19T03:17:12.385Z,10.80
2022-10-19T03:19:39.101Z,11.25
2022-10-19T03:22:06.350Z,16.55
2022-10-19T03:24:32.933Z,12.73
2022-10-19T03:26:59.497Z,14.43
2022-10-19T03:29:26.045Z,15.00
2022-10-19T03:31:52.657Z,13.40
2022-10-19T03:34:19.222Z,17.20
2022-10-19T03:36:45.862Z,16.02
2022-10-19T03:39:13.981Z,16.23
2022-10-19T03:41:40.923Z,19.08
2022-10-19T03:44:09.332Z,17.73
2022-10-19T03:46:36.444Z,18.10
2022-10-19T03:49:04.225Z,18.15
2022-10-19T03:53:59.891Z,17.30
2022-10-19T03:56:28.238Z,20.30
2022-10-19T03:58:55.899Z,16.30
2022-10-19T04:01:31.323Z,16.63
2022-10-19T04:04:00.537Z,17.02
2022-10-19T04:06:33.247Z,18.02
2022-10-19T04:09:00.144Z,16.40
2022-10-19T04:11:28.885Z,13.63
2022-10-19T04:13:56.392Z,13.95
2022-10-19T04:16:24.439Z,11.57
2022-10-19T04:18:51.280Z,14.60
2022-10-19T04:21:25.348Z,11.82
2022-10-19T04:26:19.866Z,11.40
2022-10-19T04:28:46.416Z,10.77
2022-10-19T04:31:13.099Z,11.45
2022-10-19T04:33:40.529Z,11.57
2022-10-19T04:36:09.335Z,10.60
2022-10-19T04:38:36.694Z,10.95
2022-10-19T04:41:04.322Z,11.98
2022-10-19T04:43:31.247Z,15.80
2022-10-19T04:46:02.404Z,11.05
2022-10-19T04:48:28.940Z,12.38
2022-10-19T04:50:55.904Z,16.50
2022-10-19T04:55:49.112Z,12.60
2022-10-19T04:58:15.689Z,13.77
2022-10-19T05:00:42.328Z,10.77
2022-10-19T05:03:09.203Z,12.48
2022-10-19T05:05:35.807Z,14.55
2022-10-19T05:08:02.542Z,17.42
2022-10-19T05:10:29.309Z,14.23
2022-10-19T05:12:55.916Z,14.35
2022-10-19T05:15:22.943Z,11.90
2022-10-19T05:17:51.324Z,12.65
2022-10-19T05:20:17.859Z,13.55
2022-10-19T05:22:44.355Z,15.95
2022-10-19T05:25:10.915Z,13.50
2022-10-19T05:27:37.511Z,11.57
2022-10-19T05:30:06.377Z,14.73
2022-10-19T05:32:32.955Z,9.63
2022-10-19T05:34:59.561Z,11.70
2022-10-19T05:37:26.192Z,8.93
2022-10-19T05:39:54.377Z,11.23
2022-10-19T05:42:20.983Z,11.93
2022-10-19T05:44:47.639Z,9.82
2022-10-19T05:47:14.419Z,9.07
2022-10-19T05:49:41.071Z,11.95
2022-10-19T05:52:07.593Z,11.95
2022-10-19T05:54:35.927Z,9.43
2022-10-19T05:57:02.639Z,8.35
2022-10-19T05:59:29.232Z,10.60
2022-10-19T06:01:56.107Z,12.48
2022-10-19T06:04:22.698Z,12.30
2022-10-19T06:06:49.358Z,8.63
2022-10-19T06:09:16.076Z,15.80
2022-10-19T06:11:43.380Z,30.05
2022-10-19T06:14:14.725Z,13.75
2022-10-19T06:16:41.553Z,13.93
2022-10-19T06:19:08.162Z,12.02
2022-10-19T06:21:34.683Z,12.57
2022-10-19T06:24:04.956Z,12.40
2022-10-19T06:26:33.749Z,12.43
2022-10-19T06:29:01.399Z,14.85
2022-10-19T06:31:33.043Z,12.25
2022-10-19T06:33:59.799Z,11.55
2022-10-19T06:36:28.797Z,12.10
2022-10-19T06:38:56.540Z,10.65
2022-10-19T06:43:51.553Z,12.98
2022-10-19T06:46:21.983Z,12.18
2022-10-19T06:48:59.924Z,12.43
2022-10-19T06:51:29.003Z,12.43
2022-10-19T06:53:57.193Z,14.63
2022-10-19T06:56:24.768Z,12.32
2022-10-19T06:58:51.970Z,13.63
2022-10-19T07:01:18.677Z,15.32
2022-10-19T07:03:45.436Z,14.95
2022-10-19T07:06:12.954Z,15.13
2022-10-19T07:08:40.529Z,17.27
2022-10-19T07:11:09.858Z,15.13
2022-10-19T07:13:36.825Z,17.58
2022-10-19T07:16:08.895Z,14.93
2022-10-19T07:18:36.835Z,15.13
2022-10-19T07:21:06.295Z,16.73
2022-10-19T07:23:34.391Z,15.77
2022-10-19T07:26:13.737Z,18.48
2022-10-19T07:28:42.009Z,12.30
2022-10-19T07:31:11.054Z,15.32
2022-10-19T07:33:37.711Z,14.13
2022-10-19T07:36:06.826Z,13.63
2022-10-19T07:38:33.992Z,13.90
2022-10-19T07:41:01.827Z,15.93
2022-10-19T07:43:28.344Z,14.80
2022-10-19T07:46:04.720Z,13.73
2022-10-19T07:48:31.747Z,14.07
2022-10-19T07:51:04.220Z,13.63
2022-10-19T07:53:30.865Z,16.35
2022-10-19T07:56:03.908Z,13.10
2022-10-19T07:58:30.516Z,10.43
2022-10-19T08:01:06.153Z,12.52
2022-10-19T08:06:20.502Z,10.60
2022-10-19T08:08:47.877Z,11.68
2022-10-19T08:11:20.696Z,13.15
2022-10-19T08:13:47.605Z,13.95
2022-10-19T08:16:20.971Z,10.40
2022-10-19T08:18:47.611Z,11.10
2022-10-19T08:21:14.155Z,11.35
2022-10-19T08:23:41.417Z,11.00
2022-10-19T08:26:08.375Z,10.88
2022-10-19T08:28:34.926Z,12.57
2022-10-19T08:31:10.243Z,11.98
2022-10-19T08:33:36.801Z,9.77
2022-10-19T08:36:10.150Z,10.57
2022-10-19T08:38:37.385Z,10.52
2022-10-19T08:41:26.187Z,9.52
2022-10-19T08:44:26.916Z,8.07
2022-10-19T08:47:02.668Z,8.57
2022-10-19T08:49:30.807Z,8.57
2022-10-19T08:55:01.092Z,9.00
2022-10-19T08:57:52.008Z,12.48
2022-10-19T09:00:43.684Z,8.35
2022-10-19T09:03:37.811Z,7.88
2022-10-19T09:06:26.340Z,8.23
2022-10-19T09:08:57.297Z,7.57
2022-10-19T09:11:27.483Z,7.25
2022-10-19T09:14:06.267Z,7.00
2022-10-19T09:16:34.935Z,8.57
2022-10-19T09:19:02.727Z,8.63
2022-10-19T09:21:45.998Z,5.07
2022-10-19T09:24:23.016Z,4.55
2022-10-19T09:26:53.675Z,6.80
2022-10-19T09:29:35.942Z,5.75
2022-10-19T09:32:05.341Z,5.55
2022-10-19T09:34:38.511Z,4.85
2022-10-19T09:37:05.120Z,5.97
2022-10-19T09:39:32.047Z,4.65
2022-10-19T09:42:33.401Z,5.28
2022-10-19T09:45:02.159Z,5.32
2022-10-19T09:47:35.694Z,4.22
2022-10-19T09:52:52.338Z,4.15
2022-10-19T09:55:20.876Z,4.30
2022-10-19T09:57:49.379Z,7.85
2022-10-19T10:00:24.705Z,5.53
2022-10-19T10:02:53.568Z,4.72
2022-10-19T10:05:25.382Z,4.00
2022-10-19T10:07:54.723Z,5.88
2022-10-19T10:10:28.174Z,5.25
2022-10-19T10:12:59.127Z,5.03
2022-10-19T10:15:29.303Z,6.80
2022-10-19T10:17:57.194Z,3.88
2022-10-19T10:20:32.163Z,6.68
2022-10-19T10:23:00.326Z,4.88
2022-10-19T10:25:36.076Z,6.82
2022-10-19T10:28:18.045Z,3.63
2022-10-19T10:30:46.152Z,3.50
2022-10-19T10:33:27.023Z,5.18
2022-10-19T10:36:07.756Z,4.40
2022-10-19T10:38:40.558Z,4.32
2022-10-19T10:41:13.164Z,5.25
2022-10-19T10:44:00.982Z,4.50
2022-10-19T10:46:36.367Z,4.25
2022-10-19T10:49:07.365Z,6.80
2022-10-19T10:51:36.940Z,4.57
2022-10-19T10:54:19.374Z,5.80
2022-10-19T10:57:03.031Z,6.65
2022-10-19T10:59:55.667Z,4.25
2022-10-19T11:02:30.818Z,5.00
2022-10-19T11:05:12.092Z,6.05
2022-10-19T11:07:43.112Z,5.40
2022-10-19T11:10:24.642Z,5.72
2022-10-19T11:13:05.036Z,4.93
2022-10-19T11:18:11.704Z,4.40
2022-10-19T11:20:43.275Z,4.63
2022-10-19T11:23:35.604Z,4.50
2022-10-19T11:26:05.111Z,4.57
2022-10-19T11:28:48.677Z,6.93
2022-10-19T11:31:19.508Z,6.78
2022-10-19T11:34:00.341Z,4.90
2022-10-19T11:36:30.292Z,5.82
2022-10-19T11:39:39.025Z,5.13
2022-10-19T11:42:11.827Z,4.22
2022-10-19T11:44:54.964Z,5.53
2022-10-19T11:47:31.617Z,8.73
2022-10-19T11:50:13.365Z,5.22
2022-10-19T11:53:06.243Z,3.90
2022-10-19T11:55:44.140Z,6.97
2022-10-19T11:58:34.658Z,4.30
2022-10-19T12:01:16.732Z,7.57
2022-10-19T12:04:09.386Z,3.95
2022-10-19T12:06:35.821Z,6.00
2022-10-19T12:09:20.752Z,4.18
2022-10-19T12:12:07.592Z,4.72
2022-10-19T12:14:39.355Z,4.25
2022-10-19T12:17:09.448Z,5.95
2022-10-19T12:19:48.353Z,5.05
2022-10-19T12:22:22.477Z,4.60
2022-10-19T12:24:50.764Z,6.32
2022-10-19T12:27:18.638Z,4.03
2022-10-19T12:29:47.967Z,10.23
2022-10-19T12:32:16.832Z,5.82
2022-10-19T12:35:17.831Z,5.10
2022-10-19T12:37:50.165Z,5.68
2022-10-19T12:40:27.493Z,4.40
2022-10-19T12:43:07.002Z,5.63
2022-10-19T12:46:08.085Z,6.38
2022-10-19T12:48:36.413Z,4.47
2022-10-19T12:51:05.812Z,6.90
2022-10-19T12:53:38.842Z,4.93
2022-10-19T12:56:28.338Z,5.18
2022-10-19T12:59:01.443Z,6.40
2022-10-19T13:01:34.845Z,6.32
2022-10-19T13:11:24.782Z,7.57
2022-10-19T13:14:03.035Z,6.45
2022-10-19T13:16:29.738Z,5.65
2022-10-19T13:18:59.253Z,4.80
2022-10-19T13:21:46.622Z,6.38
2022-10-19T13:27:23.946Z,4.18
2022-10-19T13:29:50.613Z,4.07
2022-10-19T13:32:43.426Z,6.03
2022-10-19T13:35:32.813Z,7.93
2022-10-19T13:38:18.756Z,9.10
2022-10-19T13:40:48.646Z,6.40
2022-10-19T13:43:21.715Z,4.45
2022-10-19T13:46:08.707Z,7.57
2022-10-19T13:49:13.536Z,3.75
2022-10-19T13:51:58.886Z,5.53
2022-10-19T13:54:34.827Z,7.28
2022-10-19T13:57:11.256Z,5.28
2022-10-19T13:59:44.162Z,6.32
2022-10-19T14:02:36.094Z,3.33
2022-10-19T14:05:25.307Z,3.90
2022-10-19T14:08:01.336Z,4.72
2022-10-19T14:10:33.138Z,4.45
2022-10-19T14:13:17.269Z,3.65
2022-10-19T14:16:02.763Z,4.65
2022-10-19T14:18:33.111Z,4.15
2022-10-19T14:21:10.344Z,4.50
2022-10-19T14:23:41.790Z,4.30
2022-10-19T14:26:31.863Z,5.35
2022-10-19T14:28:59.588Z,3.65
2022-10-19T14:31:33.574Z,5.82
2022-10-19T14:34:03.097Z,6.15
2022-10-19T14:36:36.353Z,4.78
2022-10-19T14:39:03.125Z,12.18
2022-10-19T14:41:36.947Z,4.55
2022-10-19T14:44:32.321Z,4.68
2022-10-19T14:47:01.353Z,5.10
2022-10-19T14:49:27.929Z,7.25
2022-10-19T14:52:01.053Z,4.90
2022-10-19T14:54:29.950Z,4.18
2022-10-19T14:57:01.470Z,5.68
2022-10-19T14:59:38.976Z,4.50
2022-10-19T15:02:27.677Z,5.22
2022-10-19T15:04:56.106Z,4.32
2022-10-19T15:07:42.574Z,4.30
2022-10-19T15:10:18.953Z,4.93
2022-10-19T15:12:45.677Z,6.15
2022-10-19T15:15:19.705Z,5.85
2022-10-19T15:17:59.690Z,6.05
2022-10-19T15:20:28.825Z,5.00
2022-10-19T15:22:57.662Z,4.63
2022-10-19T15:25:33.799Z,4.53
2022-10-19T15:28:33.910Z,3.95
2022-10-19T15:31:25.367Z,5.50
2022-10-19T15:33:53.793Z,4.82
2022-10-19T15:36:21.974Z,4.93
2022-10-19T15:39:11.473Z,4.63
2022-10-19T15:41:46.758Z,5.50
2022-10-19T15:44:34.627Z,4.70
2022-10-19T15:47:22.559Z,5.18
2022-10-19T15:49:55.833Z,6.07
2022-10-19T15:52:31.880Z,5.78
2022-10-19T15:54:59.693Z,5.43
2022-10-19T15:57:39.412Z,5.28
2022-10-19T16:00:13.503Z,9.07
2022-10-19T16:02:40.722Z,5.00
2022-10-19T16:07:40.526Z,6.85
2022-10-19T16:10:11.232Z,11.63
2022-10-19T16:12:38.212Z,6.38
2022-10-19T16:15:05.148Z,6.70
2022-10-19T16:17:32.449Z,5.20
2022-10-19T16:19:59.187Z,7.72
2022-10-19T16:22:25.688Z,8.50
2022-10-19T16:24:52.258Z,9.52
2022-10-19T16:27:19.020Z,6.78
2022-10-19T16:29:45.606Z,6.63
2022-10-19T16:32:12.201Z,7.80
2022-10-19T16:34:38.812Z,8.48
2022-10-19T16:37:07.078Z,6.93
2022-10-19T16:39:34.406Z,7.22
2022-10-19T16:42:00.963Z,7.28
2022-10-19T16:44:27.529Z,8.63
2022-10-19T16:46:56.215Z,12.55
2022-10-19T16:49:22.749Z,8.60
2022-10-19T16:51:51.969Z,7.47
2022-10-19T16:54:21.654Z,8.30
2022-10-19T16:56:48.415Z,9.65
2022-10-19T16:59:16.992Z,7.75
2022-10-19T17:01:44.898Z,8.82
2022-10-19T17:04:12.499Z,9.65
2022-10-19T17:06:39.353Z,8.10
2022-10-19T17:11:52.542Z,7.10
2022-10-19T17:14:19.152Z,9.45
2022-10-19T17:16:45.738Z,9.48
2022-10-19T17:19:12.539Z,11.43
2022-10-19T17:21:39.431Z,8.13
2022-10-19T17:24:14.680Z,9.65
2022-10-19T17:26:45.142Z,8.27
2022-10-19T17:29:12.369Z,10.68
2022-10-19T17:31:39.861Z,7.15
2022-10-19T17:34:07.591Z,8.25
2022-10-19T17:39:05.832Z,8.93
2022-10-19T17:41:33.014Z,10.13
2022-10-19T17:44:00.002Z,8.82
2022-10-19T17:46:29.639Z,8.93
2022-10-19T17:48:56.649Z,8.70
2022-10-19T17:51:27.128Z,10.73
2022-10-19T17:53:59.046Z,9.88
2022-10-19T17:56:26.272Z,8.70
2022-10-19T17:58:53.249Z,10.35
2022-10-19T18:01:21.706Z,10.63
2022-10-19T18:03:49.035Z,10.32
2022-10-19T18:06:22.750Z,12.43
2022-10-19T18:08:52.418Z,10.77
2022-10-19T18:11:21.802Z,11.55
2022-10-19T18:13:50.303Z,10.95
2022-10-19T18:16:29.233Z,12.13
2022-10-19T18:18:57.359Z,13.45
2022-10-19T18:21:32.394Z,13.35
2022-10-19T18:24:00.414Z,14.43
2022-10-19T18:26:28.788Z,14.55
2022-10-19T18:28:55.900Z,12.50
2022-10-19T18:31:25.359Z,14.50
2022-10-19T18:34:15.426Z,13.52
2022-10-19T18:36:42.473Z,12.90
2022-10-19T18:39:11.377Z,9.68
2022-10-19T18:41:38.495Z,10.88
2022-10-19T18:44:06.872Z,10.70
2022-10-19T18:46:35.743Z,13.63
2022-10-19T18:49:04.788Z,12.70
2022-10-19T18:51:31.962Z,12.18
2022-10-19T18:53:58.821Z,10.77
2022-10-19T18:56:25.853Z,11.55
2022-10-19T18:58:52.534Z,10.85
2022-10-19T19:01:23.000Z,9.55
2022-10-19T19:03:51.030Z,12.00
2022-10-19T19:06:20.595Z,11.80
2022-10-19T19:08:47.622Z,12.32
2022-10-19T19:11:18.147Z,13.25
2022-10-19T19:13:51.346Z,10.88
2022-10-19T19:16:18.131Z,9.75
2022-10-19T19:18:44.735Z,12.57
2022-10-19T19:21:17.293Z,12.00
2022-10-19T19:23:44.335Z,11.52
2022-10-19T19:26:12.856Z,10.77
2022-10-19T19:28:41.535Z,10.43
2022-10-19T19:31:10.137Z,11.80
2022-10-19T19:33:36.787Z,13.90
2022-10-19T19:36:08.443Z,9.10
2022-10-19T19:38:35.961Z,11.32
2022-10-19T19:41:07.518Z,10.23
2022-10-19T19:43:36.866Z,10.35
2022-10-19T19:46:08.922Z,12.20
2022-10-19T19:48:36.868Z,14.68
2022-10-19T19:51:03.612Z,10.48
2022-10-19T19:53:30.362Z,10.00
2022-10-19T19:55:56.949Z,13.45
2022-10-19T19:58:23.444Z,9.68
2022-10-19T20:00:49.968Z,11.60
2022-10-19T20:03:16.522Z,11.93
2022-10-19T20:05:43.025Z,11.73
2022-10-19T20:08:09.969Z,13.43
2022-10-19T20:10:43.110Z,16.80
2022-10-19T20:13:09.644Z,11.85
2022-10-19T20:15:39.398Z,11.63
2022-10-19T20:18:06.795Z,13.25
2022-10-19T20:20:33.313Z,10.38
2022-10-19T20:22:59.945Z,12.48
2022-10-19T20:25:26.718Z,11.77
2022-10-19T20:27:53.261Z,9.45
2022-10-19T20:30:19.913Z,10.73
2022-10-19T20:32:46.472Z,9.20
2022-10-19T20:35:13.084Z,10.40
2022-10-19T20:37:39.718Z,12.23
2022-10-19T20:40:08.802Z,14.18
2022-10-19T20:42:36.193Z,12.80
2022-10-19T20:45:03.137Z,11.60
2022-10-19T20:47:29.810Z,10.77
2022-10-19T20:49:56.396Z,12.77
2022-10-19T20:52:23.017Z,13.10
2022-10-19T20:54:49.644Z,12.18
2022-10-19T20:57:16.165Z,11.50
2022-10-19T20:59:43.889Z,9.75
2022-10-19T21:04:36.893Z,12.30
2022-10-19T21:07:04.878Z,12.20
2022-10-19T21:09:31.660Z,12.45
2022-10-19T21:11:58.530Z,11.38
2022-10-19T21:14:28.379Z,14.73
2022-10-19T21:16:57.298Z,13.43
2022-10-19T21:19:25.375Z,13.20
2022-10-19T21:21:55.402Z,13.70
2022-10-19T21:24:24.675Z,13.82
2022-10-19T21:29:18.867Z,11.65
2022-10-19T21:31:48.880Z,12.95
2022-10-19T21:34:18.929Z,13.90
2022-10-19T21:36:45.500Z,11.93
2022-10-19T21:39:12.472Z,12.60
2022-10-19T21:41:39.083Z,15.90
2022-10-19T21:44:05.716Z,13.50
2022-10-19T21:46:32.356Z,11.77
2022-10-19T21:48:58.929Z,13.93
2022-10-19T21:51:35.965Z,13.93
2022-10-19T21:54:04.455Z,13.90
2022-10-19T21:56:32.042Z,12.80
2022-10-19T21:58:58.838Z,13.80
2022-10-19T22:01:27.872Z,15.52
2022-10-19T22:03:57.438Z,13.63
2022-10-19T22:06:25.409Z,15.75
2022-10-19T22:08:53.157Z,13.40
2022-10-19T22:13:46.430Z,12.25
2022-10-19T22:16:18.996Z,14.90
2022-10-19T22:18:46.670Z,15.38
2022-10-19T22:21:15.748Z,14.57
2022-10-19T22:23:43.000Z,13.65
2022-10-19T22:26:17.584Z,14.57
2022-10-19T22:28:44.708Z,14.23
2022-10-19T22:31:12.301Z,14.10
2022-10-19T22:33:39.302Z,13.02
2022-10-19T22:36:07.699Z,12.80
2022-10-19T22:38:34.998Z,12.38
2022-10-19T22:41:01.637Z,13.27
2022-10-19T22:43:28.217Z,15.35
2022-10-19T22:45:54.820Z,14.10
2022-10-19T22:48:21.318Z,13.93
2022-10-19T22:50:53.044Z,13.90
2022-10-19T22:53:20.374Z,13.30
2022-10-19T22:55:46.904Z,12.73
2022-10-19T22:58:13.522Z,12.93
2022-10-19T23:00:40.075Z,14.27
2022-10-19T23:03:06.642Z,14.10
2022-10-19T23:05:33.171Z,12.48
2022-10-19T23:07:59.655Z,17.70
2022-10-19T23:10:26.537Z,13.55
2022-10-19T23:12:53.673Z,15.13
2022-10-19T23:15:21.219Z,11.35
2022-10-19T23:17:48.046Z,12.20
2022-10-19T23:20:14.942Z,13.63
2022-10-19T23:22:41.421Z,12.18
2022-10-19T23:25:08.575Z,14.85
2022-10-19T23:27:35.441Z,14.02
2022-10-19T23:30:03.315Z,14.18
2022-10-19T23:32:29.892Z,12.68
2022-10-19T23:34:56.772Z,13.68
2022-10-19T23:37:23.363Z,12.65
2022-10-19T23:39:50.184Z,13.10
2022-10-19T23:42:16.719Z,14.25
2022-10-19T23:44:43.294Z,13.80
2022-10-19T23:47:09.873Z,10.90
2022-10-19T23:49:36.524Z,11.32
2022-10-19T23:52:03.094Z,14.80
2022-10-19T23:54:29.618Z,11.90
2022-10-19T23:56:56.137Z,10.30
2022-10-19T23:59:22.838Z,14.57
